INTERACTIVE WEATHER
 METAR AND TAF INFORMATION
METAR FOR K54J
ADDS - METARS form results

(1600 UTC 21 August 2019)
Data provider http://aviationweather.gov/metar/data/
 
METAR text: K54J 211535Z AUTO 15003KT 10SM BKN017 BKN023 BKN027 28/24 A3013 RMK AO2 T02810237
Conditions at: K54J (DE FUNIAK SPRNGS, FL, US) observed 1535 UTC 21 August 2019
Temperature: 28.1°C (83°F)
Dewpoint: 23.7°C (75°F) [RH = 77%]
Pressure (altimeter): 30.13 inches Hg (1020.4 mb)
Winds: from the SSE (150 degrees) at 3 MPH (3 knots; 1.5 m/s)
Visibility: 10 or more miles (16+ km)
Ceiling: 1700 feet AGL
Clouds: broken clouds at 1700 feet AGL
broken clouds at 2300 feet AGL
broken clouds at 2700 feet AGL
Weather: automated observation with no human augmentation;
there may or may not be significant weather present at this time

METAR text: K54J 211515Z AUTO 12006KT 10SM SCT011 BKN017 BKN025 28/24 A3013 RMK AO2 T02810236
Conditions at: K54J (DE FUNIAK SPRNGS, FL, US) observed 1515 UTC 21 August 2019
Temperature: 28.1°C (83°F)
Dewpoint: 23.6°C (74°F) [RH = 77%]
Pressure (altimeter): 30.13 inches Hg (1020.4 mb)
Winds: from the ESE (120 degrees) at 7 MPH (6 knots; 3.1 m/s)
Visibility: 10 or more miles (16+ km)
Ceiling: 1700 feet AGL
Clouds: scattered clouds at 1100 feet AGL
broken clouds at 1700 feet AGL
broken clouds at 2500 feet AGL
Weather: automated observation with no human augmentation;
there may or may not be significant weather present at this time

 AIRPORT MAP

 RUNWAY INFORMATION
Runway 09 Runway length 4100 ft Runway width 60 ft
Runway elevation 288 ft Runway displaced threshold 0 ft Runway heading 90
Runway 27 Runway length 4100 ft Runway width 60 ft
Runway elevation 272 ft Runway displaced threshold 0 ft Runway heading 270
Runway 18 Runway length 2700 ft Runway width 50 ft
Runway elevation 283 ft Runway displaced threshold 165 ft Runway heading 180
Runway 36 Runway length 2700 ft Runway width 50 ft
Runway elevation 270 ft Runway displaced threshold 400 ft Runway heading 360

 AIRPORT FREQUENCIES
Type UNIC Name CTAF/UNICO Frequency 122.8 MHZ

 AIRPORT NEAR NAVIGATION AIDS

Neither the Department of the Army, nor any other component of the Department of Defense or Federal Government has approved, endorsed, or authorized this promotion, activity, or organization. Virtual United States Army Aviation organization is in no way affiliated with the Department of Defense, Department of the Army, or any other federal or government entity. Virtual United States Army Aviation is a group of flight simulation enthusiasts with the common interest of promoting enjoyment and cameraderie through the simulation of military operations and procedures utilizing several flight simulation platforms.

Copyright © vUSAA 2017-2019 All Rights Reserved